KBNW/BNW METAR and TAF weather

Enter ICAO airport designator
Station Type Date Time Source
KBNW METAR 2018/01/19 22:55 UTC NOAA

KBNW 192255Z AUTO 22013G19KT 9SM CLR 06/M01 A2962 RMK AO2


Station Type Date Time Source
KBNW Decoded METAR 2018/01/19 22:55 UTC NOAA

Boone Municipal, IA, United States (KBNW) 42-03N 093-51W
Jan 19, 2018 - 05:55 PM EST / 2018.01.19 2255 UTC
Wind: from the SW (220 degrees) at 15 MPH (13 KT) gusting to 22 MPH (19 KT):0
Visibility: 9 mile(s):0
Sky conditions: clear
Temperature: 42 F (6 C)
Dew Point: 30 F (-1 C)
Relative Humidity: 60%
Pressure (altimeter): 29.62 in. Hg (1003 hPa)
ob: KBNW 192255Z AUTO 22013G19KT 9SM CLR 06/M01 A2962 RMK AO2
cycle: 23

Station Type Date Time Source
KBNW TAF UTC NOAA

Error!


Example: see airport list